Time;durP1;ratioP1;P1;durP2;ratioP2;P2;SDS_P1;SDS_P2;PMS_P1;PMS_P2;Temp;Humidity;BMP_temperature;BMP_pressure;BME280_temperature;BME280_humidity;BME280_pressure;Samples;Min_cycle;Max_cycle;Signal;HPM_P1;HPM_P2
2021/12/28 00:02:13;;;;;;;72.75;29.67;;;;;;;-4.12;76.13;100751.25;5012491;28;20557;-50
2021/12/28 00:04:39;;;;;;;73.13;29.90;;;;;;;-4.14;75.64;100751.38;5013279;28;20026;-50
2021/12/28 00:07:04;;;;;;;69.47;30.98;;;;;;;-4.12;75.69;100757.31;5012837;28;20465;-49
2021/12/28 00:09:30;;;;;;;64.95;28.58;;;;;;;-4.14;75.63;100740.91;5014870;28;20385;-48
2021/12/28 00:11:55;;;;;;;78.35;29.52;;;;;;;-4.15;75.57;100734.03;5015034;28;20501;-50
2021/12/28 00:14:23;;;;;;;73.75;30.52;;;;;;;-4.18;75.79;100734.34;5019416;28;20018;-48
2021/12/28 00:19:33;;;;;;;71.40;29.07;;;;;;;-4.23;75.63;100735.78;5021326;28;20441;-49
2021/12/28 00:21:58;;;;;;;74.03;30.48;;;;;;;-4.26;76.29;100734.31;5022961;28;20423;-48
2021/12/28 00:24:24;;;;;;;75.82;30.20;;;;;;;-4.35;75.97;100728.19;5020104;28;20033;-50
2021/12/28 00:26:51;;;;;;;72.75;31.08;;;;;;;-4.33;75.77;100741.09;5005358;28;20079;-53
2021/12/28 00:29:16;;;;;;;76.28;32.15;;;;;;;-4.38;76.14;100745.97;5018786;28;20056;-48
2021/12/28 00:31:42;;;;;;;71.55;29.55;;;;;;;-4.37;76.20;100758.06;5016214;28;20064;-49
2021/12/28 00:34:07;;;;;;;81.43;31.90;;;;;;;-4.37;76.28;100750.22;5020443;28;20025;-51
2021/12/28 00:36:33;;;;;;;83.57;32.53;;;;;;;-4.40;76.37;100753.16;5019405;28;20025;-49
2021/12/28 00:39:00;;;;;;;76.25;30.95;;;;;;;-4.41;76.42;100757.56;5023786;28;20052;-50
2021/12/28 00:41:25;;;;;;;75.15;29.75;;;;;;;-4.37;75.77;100755.47;5016044;28;20215;-48
2021/12/28 00:43:52;;;;;;;80.68;34.30;;;;;;;-4.34;75.72;100755.97;5019662;28;20277;-51
2021/12/28 00:46:17;;;;;;;90.57;33.40;;;;;;;-4.37;75.97;100752.84;5018817;28;20374;-49
2021/12/28 00:48:43;;;;;;;82.95;31.27;;;;;;;-4.42;76.73;100762.94;5021175;28;20099;-48
2021/12/28 00:51:08;;;;;;;83.80;33.47;;;;;;;-4.42;76.51;100761.16;5016451;28;20084;-49
2021/12/28 00:53:34;;;;;;;83.57;34.08;;;;;;;-4.46;76.14;100759.00;5021152;28;20501;-48
2021/12/28 00:55:59;;;;;;;79.05;34.25;;;;;;;-4.46;76.53;100759.00;5013870;28;20373;-48
2021/12/28 00:58:25;;;;;;;84.35;33.40;;;;;;;-4.46;76.35;100757.19;5026599;28;20029;-48
2021/12/28 01:00:51;;;;;;;89.55;35.78;;;;;;;-4.48;76.25;100748.69;5013042;28;20365;-52
2021/12/28 01:03:18;;;;;;;80.78;32.33;;;;;;;-4.52;76.88;100751.72;5024455;28;20044;-50
2021/12/28 01:05:44;;;;;;;77.80;31.45;;;;;;;-4.53;76.72;100760.56;5015061;28;20119;-51
2021/12/28 01:08:10;;;;;;;88.78;35.60;;;;;;;-4.54;76.62;100758.91;5023168;28;20062;-50
2021/12/28 01:10:40;;;;;;;91.32;35.70;;;;;;;-4.54;76.72;100748.44;5015116;28;20033;-51
2021/12/28 01:13:06;;;;;;;84.35;35.30;;;;;;;-4.60;76.74;100750.69;5022237;28;20022;-50
2021/12/28 01:15:32;;;;;;;85.25;35.00;;;;;;;-4.59;77.17;100743.69;5017801;28;20029;-49
2021/12/28 01:17:58;;;;;;;86.63;35.28;;;;;;;-4.58;76.49;100747.94;5020363;28;20543;-50
2021/12/28 01:20:25;;;;;;;85.35;35.47;;;;;;;-4.61;76.56;100748.25;5012225;28;20022;-48
2021/12/28 01:22:51;;;;;;;89.63;36.67;;;;;;;-4.61;77.07;100753.47;5016741;28;20056;-52
2021/12/28 01:25:19;;;;;;;85.75;33.75;;;;;;;-4.62;76.83;100752.66;5017681;28;20072;-50
2021/12/28 01:27:45;;;;;;;84.35;34.50;;;;;;;-4.62;76.66;100757.88;5017363;28;20068;-48
2021/12/28 01:30:13;;;;;;;93.38;35.67;;;;;;;-4.60;76.52;100763.78;5012546;28;20034;-48
2021/12/28 01:32:39;;;;;;;86.28;35.97;;;;;;;-4.59;76.36;100752.34;5017375;28;20086;-48
2021/12/28 01:35:07;;;;;;;80.43;35.03;;;;;;;-4.60;77.02;100766.38;5018567;28;20067;-48
2021/12/28 01:37:33;;;;;;;92.30;37.42;;;;;;;-4.64;76.41;100770.28;5017008;28;20032;-48
2021/12/28 01:39:59;;;;;;;91.43;36.40;;;;;;;-4.63;76.91;100766.69;5012367;28;20022;-50
2021/12/28 01:42:25;;;;;;;79.22;33.67;;;;;;;-4.63;77.18;100764.06;5016204;28;20378;-49
2021/12/28 01:44:51;;;;;;;86.07;34.78;;;;;;;-4.61;76.72;100764.75;5015892;28;20051;-50
2021/12/28 01:47:17;;;;;;;82.47;33.35;;;;;;;-4.59;76.37;100759.38;5019872;28;20030;-50
2021/12/28 01:49:44;;;;;;;81.45;33.85;;;;;;;-4.59;76.76;100754.97;5016991;28;20021;-51
2021/12/28 01:52:10;;;;;;;80.88;33.80;;;;;;;-4.57;76.31;100747.78;5014909;28;20474;-50
2021/12/28 01:54:35;;;;;;;91.97;35.08;;;;;;;-4.61;76.67;100753.47;5011831;28;20029;-50
2021/12/28 01:57:01;;;;;;;90.68;35.47;;;;;;;-4.60;76.93;100755.09;5016781;28;20049;-48
2021/12/28 01:59:26;;;;;;;90.72;33.88;;;;;;;-4.64;76.19;100751.16;5017800;28;20033;-50
2021/12/28 02:01:52;;;;;;;84.97;33.45;;;;;;;-4.62;77.09;100752.66;5015043;28;20022;-52
2021/12/28 02:04:26;;;;;;;93.50;35.55;;;;;;;-4.55;76.20;100747.63;5020674;28;20041;-48
2021/12/28 02:06:54;;;;;;;81.78;35.22;;;;;;;-4.60;76.10;100745.47;5017995;28;20021;-51
2021/12/28 02:09:21;;;;;;;97.55;34.40;;;;;;;-4.62;76.46;100739.56;5014014;28;20062;-49
2021/12/28 02:11:47;;;;;;;81.82;34.28;;;;;;;-4.59;76.60;100741.06;5016638;28;20088;-50
2021/12/28 02:14:13;;;;;;;91.57;34.38;;;;;;;-4.59;76.57;100736.66;5015018;28;20037;-48
2021/12/28 02:16:41;;;;;;;83.25;33.85;;;;;;;-4.59;76.46;100730.59;5013389;28;20473;-48
2021/12/28 02:19:08;;;;;;;93.13;36.13;;;;;;;-4.63;76.13;100730.09;5019002;28;20036;-51
2021/12/28 02:21:35;;;;;;;90.38;32.70;;;;;;;-4.64;76.13;100723.22;5014445;28;20095;-48
2021/12/28 02:24:05;;;;;;;89.60;34.30;;;;;;;-4.68;76.42;100715.81;5011349;28;20394;-50
2021/12/28 02:26:30;;;;;;;76.95;33.55;;;;;;;-4.65;76.06;100728.59;5012576;28;20022;-49
2021/12/28 02:28:57;;;;;;;85.38;34.72;;;;;;;-4.71;76.46;100722.16;5018691;28;20457;-49
2021/12/28 02:31:23;;;;;;;91.82;34.80;;;;;;;-4.71;76.45;100721.34;5012556;28;20216;-48
2021/12/28 02:33:49;;;;;;;84.85;33.85;;;;;;;-4.75;76.73;100717.38;5016825;28;20034;-48
2021/12/28 02:36:16;;;;;;;87.78;35.05;;;;;;;-4.74;76.33;100712.00;5018384;28;20069;-49
2021/12/28 02:38:43;;;;;;;85.30;34.63;;;;;;;-4.76;76.26;100710.50;5014575;28;20021;-48
2021/12/28 02:41:10;;;;;;;86.80;37.20;;;;;;;-4.77;76.62;100714.94;5018085;28;20029;-48
2021/12/28 02:43:37;;;;;;;85.47;35.17;;;;;;;-4.79;76.64;100713.44;5016985;28;20022;-52
2021/12/28 02:46:05;;;;;;;89.78;35.15;;;;;;;-4.77;76.57;100706.25;5020037;28;20021;-48
2021/12/28 02:48:32;;;;;;;88.03;34.55;;;;;;;-4.80;76.01;100707.38;5018245;28;20108;-48
2021/12/28 02:51:05;;;;;;;89.82;34.40;;;;;;;-4.80;77.15;100711.78;5020302;28;20037;-50
2021/12/28 02:53:31;;;;;;;91.55;35.25;;;;;;;-4.86;77.06;100707.97;5016936;28;20025;-49
2021/12/28 02:55:57;;;;;;;89.78;34.58;;;;;;;-4.82;76.82;100706.72;5011468;28;20036;-48
2021/12/28 02:58:30;;;;;;;86.88;34.67;;;;;;;-4.86;76.76;100707.97;5021707;28;20208;-49
2021/12/28 03:01:01;;;;;;;82.60;34.35;;;;;;;-4.87;76.84;100701.91;5013350;28;20132;-49
2021/12/28 03:03:29;;;;;;;86.68;35.90;;;;;;;-4.85;76.73;100696.53;5024390;28;20036;-49
2021/12/28 03:05:56;;;;;;;83.57;33.45;;;;;;;-4.87;77.04;100693.25;5015081;28;20359;-48
2021/12/28 03:08:25;;;;;;;86.88;34.13;;;;;;;-4.86;76.83;100695.72;5017597;28;20032;-50
2021/12/28 03:10:51;;;;;;;89.80;35.35;;;;;;;-4.82;77.26;100692.81;5014867;28;20144;-51
2021/12/28 03:13:21;;;;;;;87.40;34.25;;;;;;;-4.83;76.66;100680.72;5022916;28;20021;-49
2021/12/28 03:15:47;;;;;;;89.70;35.90;;;;;;;-4.85;76.99;100683.47;5013844;28;20067;-48
2021/12/28 03:18:12;;;;;;;82.63;34.05;;;;;;;-4.87;76.93;100677.56;5015480;28;21090;-48
2021/12/28 03:20:38;;;;;;;80.07;35.45;;;;;;;-4.89;77.03;100671.69;5010717;28;20493;-50
2021/12/28 03:23:04;;;;;;;87.28;33.53;;;;;;;-4.97;76.81;100669.81;5015163;28;20057;-48
2021/12/28 03:25:31;;;;;;;84.63;35.80;;;;;;;-4.99;77.39;100670.94;5013956;28;20037;-49
2021/12/28 03:27:57;;;;;;;84.65;35.05;;;;;;;-4.97;77.07;100669.00;5015275;28;20041;-49
2021/12/28 03:30:23;;;;;;;84.10;33.67;;;;;;;-4.97;77.75;100663.78;5018118;28;20102;-49
2021/12/28 03:32:48;;;;;;;81.10;34.80;;;;;;;-4.96;77.05;100663.63;5015034;28;20030;-49
2021/12/28 03:35:15;;;;;;;87.40;35.72;;;;;;;-4.97;77.20;100648.94;5014838;28;20182;-50
2021/12/28 03:37:41;;;;;;;91.35;34.72;;;;;;;-4.95;77.13;100648.78;5016848;28;20112;-48
2021/12/28 03:40:12;;;;;;;92.85;33.85;;;;;;;-4.94;76.61;100645.19;5012229;28;20341;-50
2021/12/28 03:42:38;;;;;;;91.85;35.95;;;;;;;-4.95;77.56;100646.97;5014535;28;20025;-50
2021/12/28 03:45:07;;;;;;;82.63;36.40;;;;;;;-4.96;77.70;100639.28;5011568;28;20034;-49
2021/12/28 03:47:33;;;;;;;85.38;34.95;;;;;;;-4.94;77.58;100642.56;5011426;28;20033;-48
2021/12/28 03:49:59;;;;;;;85.30;34.28;;;;;;;-4.97;77.40;100638.47;5011838;28;20032;-50
2021/12/28 03:52:24;;;;;;;83.28;34.38;;;;;;;-4.96;77.09;100636.69;5016144;28;20115;-48
2021/12/28 03:54:50;;;;;;;91.25;35.28;;;;;;;-4.98;77.31;100636.00;5012072;28;20033;-49
2021/12/28 03:57:15;;;;;;;85.72;34.90;;;;;;;-4.98;77.24;100625.56;5013040;28;20021;-48
2021/12/28 03:59:41;;;;;;;88.13;34.13;;;;;;;-5.12;78.21;100624.28;5013648;28;20037;-48
2021/12/28 04:02:06;;;;;;;86.38;35.50;;;;;;;-5.08;78.40;100619.56;5009532;28;20115;-48
2021/12/28 04:04:32;;;;;;;86.18;35.85;;;;;;;-5.05;78.03;100619.28;5016701;28;20033;-48
2021/12/28 04:06:58;;;;;;;86.78;34.72;;;;;;;-5.07;77.70;100627.25;5015021;28;20033;-50
2021/12/28 04:09:45;;;;;;;89.50;35.67;;;;;;;-5.11;77.64;100623.31;5016494;28;20033;-48
2021/12/28 04:12:09;;;;;;;94.53;37.53;;;;;;;-5.11;77.92;100620.69;5011431;28;20054;-51
2021/12/28 04:14:34;;;;;;;87.90;32.50;;;;;;;-5.07;78.06;100616.00;5015199;28;20092;-49
2021/12/28 04:17:00;;;;;;;81.95;32.92;;;;;;;-5.07;78.29;100610.78;5011988;28;20413;-48
2021/12/28 04:19:25;;;;;;;84.32;33.35;;;;;;;-5.07;78.19;100602.94;5014732;28;20072;-50
2021/12/28 04:21:51;;;;;;;84.22;34.92;;;;;;;-5.00;78.22;100606.59;5013216;28;20034;-52
2021/12/28 04:24:16;;;;;;;89.40;34.53;;;;;;;-5.01;77.92;100610.19;5011318;28;20596;-48
2021/12/28 04:26:42;;;;;;;95.20;35.42;;;;;;;-5.01;77.97;100603.16;5014211;28;20156;-48
2021/12/28 04:29:07;;;;;;;82.18;35.78;;;;;;;-5.02;77.86;100604.13;5010675;28;20026;-49
2021/12/28 04:31:34;;;;;;;88.63;35.40;;;;;;;-5.06;78.37;100604.56;5000919;28;20026;-49
2021/12/28 04:34:00;;;;;;;86.28;34.72;;;;;;;-5.06;77.93;100605.38;5009580;28;20360;-48
2021/12/28 04:36:25;;;;;;;89.70;35.55;;;;;;;-5.02;77.73;100598.09;5013735;28;20124;-50
2021/12/28 04:38:51;;;;;;;90.35;36.33;;;;;;;-5.03;77.89;100580.75;5015806;28;20104;-52
2021/12/28 04:41:16;;;;;;;87.30;35.83;;;;;;;-5.03;78.35;100583.38;5014430;28;20060;-49
2021/12/28 04:43:43;;;;;;;90.85;35.60;;;;;;;-5.06;77.67;100581.06;5016917;28;20504;-50
2021/12/28 04:46:09;;;;;;;88.00;34.42;;;;;;;-5.10;78.04;100584.94;5018279;28;20108;-50
2021/12/28 04:48:35;;;;;;;81.13;35.03;;;;;;;-5.09;78.44;100583.97;5001876;28;20065;-48
2021/12/28 04:51:00;;;;;;;87.88;35.08;;;;;;;-5.09;77.80;100582.19;5019700;28;20033;-48
2021/12/28 04:53:26;;;;;;;96.50;36.78;;;;;;;-5.09;78.04;100570.91;5019001;28;20064;-50
2021/12/28 04:55:52;;;;;;;87.07;35.78;;;;;;;-5.07;78.20;100579.41;4999881;28;20426;-50
2021/12/28 04:58:18;;;;;;;95.70;37.90;;;;;;;-5.06;77.99;100578.44;5016555;28;20021;-48
2021/12/28 05:00:46;;;;;;;96.55;36.15;;;;;;;-5.06;78.34;100581.06;5020035;28;20127;-48
2021/12/28 05:03:12;;;;;;;87.82;36.22;;;;;;;-5.07;78.29;100590.69;5007209;28;20038;-50
2021/12/28 05:05:43;;;;;;;88.75;36.17;;;;;;;-5.09;78.07;100590.03;5021446;28;20397;-51
2021/12/28 05:08:10;;;;;;;91.05;35.13;;;;;;;-5.09;78.26;100584.81;5019923;28;20037;-51
2021/12/28 05:10:36;;;;;;;82.65;34.75;;;;;;;-5.13;78.07;100585.25;5012595;28;20075;-49
2021/12/28 05:13:02;;;;;;;86.28;34.42;;;;;;;-5.19;78.22;100582.28;5017286;28;20112;-48
2021/12/28 05:15:28;;;;;;;90.70;34.97;;;;;;;-5.19;78.69;100558.78;5020644;28;20029;-48
2021/12/28 05:17:54;;;;;;;90.82;37.00;;;;;;;-5.17;79.02;100551.59;5016177;28;20026;-50
2021/12/28 05:20:20;;;;;;;85.40;34.97;;;;;;;-5.19;78.94;100553.56;5021602;28;20021;-51
2021/12/28 05:22:45;;;;;;;81.80;33.92;;;;;;;-5.14;78.64;100542.63;5017892;28;20036;-48
2021/12/28 05:25:11;;;;;;;96.93;36.42;;;;;;;-5.14;79.02;100526.16;5020090;28;20284;-48
2021/12/28 05:27:36;;;;;;;89.32;35.28;;;;;;;-5.12;78.26;100514.56;5004171;28;20029;-51
2021/12/28 05:30:05;;;;;;;89.55;35.63;;;;;;;-5.12;78.47;100514.56;5013926;28;20025;-50
2021/12/28 05:32:31;;;;;;;86.65;33.72;;;;;;;-5.10;78.38;100507.41;5005812;28;20037;-48
2021/12/28 05:34:56;;;;;;;88.80;33.92;;;;;;;-5.11;78.42;100497.94;5019563;28;20100;-48
2021/12/28 05:37:22;;;;;;;90.07;33.88;;;;;;;-5.13;78.22;100489.44;5022802;28;20060;-48
2021/12/28 05:39:48;;;;;;;84.65;33.67;;;;;;;-5.14;78.46;100494.81;5021365;28;20482;-51
2021/12/28 05:42:13;;;;;;;90.70;34.65;;;;;;;-5.13;78.08;100496.44;5004519;28;20029;-50
2021/12/28 05:44:39;;;;;;;80.10;33.80;;;;;;;-5.16;78.08;100502.78;5016031;28;20481;-50
2021/12/28 05:47:05;;;;;;;90.45;34.75;;;;;;;-5.15;78.68;100511.44;5014452;28;20025;-49
2021/12/28 05:49:30;;;;;;;92.32;36.40;;;;;;;-5.15;78.99;100507.03;4998444;28;20099;-48
2021/12/28 05:51:56;;;;;;;85.55;34.95;;;;;;;-5.12;78.64;100505.91;5018215;28;20041;-50
2021/12/28 05:54:21;;;;;;;85.03;34.78;;;;;;;-5.14;78.53;100494.81;5017890;28;20241;-49
2021/12/28 05:56:47;;;;;;;88.68;35.30;;;;;;;-5.17;78.30;100482.88;5012234;28;20021;-50
2021/12/28 05:59:12;;;;;;;85.93;33.40;;;;;;;-5.22;78.24;100493.75;5017565;28;20069;-48
2021/12/28 06:01:38;;;;;;;88.93;33.60;;;;;;;-5.28;78.41;100504.81;5017917;28;20106;-50
2021/12/28 06:04:04;;;;;;;94.57;35.10;;;;;;;-5.27;79.31;100501.22;5004124;28;20157;-48
2021/12/28 06:06:31;;;;;;;86.80;33.67;;;;;;;-5.24;79.08;100493.09;5022892;28;20021;-52
2021/12/28 06:08:56;;;;;;;88.78;35.25;;;;;;;-5.23;78.89;100488.69;5012401;28;20060;-48
2021/12/28 06:11:22;;;;;;;93.82;35.97;;;;;;;-5.25;78.64;100491.44;5022584;28;20030;-48
2021/12/28 06:13:47;;;;;;;94.97;36.05;;;;;;;-5.24;78.71;100487.06;5014610;28;20033;-50
2021/12/28 06:16:15;;;;;;;90.35;35.28;;;;;;;-5.22;78.93;100472.88;5019441;28;20517;-49
2021/12/28 06:18:41;;;;;;;85.50;36.00;;;;;;;-5.21;78.89;100474.53;5014566;28;20136;-50
2021/12/28 06:21:06;;;;;;;98.28;35.85;;;;;;;-5.18;78.62;100460.34;5020424;28;20102;-48
2021/12/28 06:23:32;;;;;;;81.68;34.92;;;;;;;-5.19;78.20;100459.53;5023848;28;20386;-49
2021/12/28 06:25:58;;;;;;;93.32;37.63;;;;;;;-5.24;78.75;100448.69;5005500;28;20034;-50
2021/12/28 06:28:23;;;;;;;89.25;36.42;;;;;;;-5.24;78.38;100453.91;5018457;28;20116;-48
2021/12/28 06:30:49;;;;;;;83.28;37.97;;;;;;;-5.23;78.55;100467.78;5022317;28;20382;-48
2021/12/28 06:33:15;;;;;;;91.35;36.80;;;;;;;-5.25;78.74;100457.50;5016407;28;20025;-49
2021/12/28 06:35:41;;;;;;;84.90;36.75;;;;;;;-5.23;78.56;100455.56;5024842;28;20404;-50
2021/12/28 06:38:07;;;;;;;88.30;33.30;;;;;;;-5.22;77.92;100461.59;5003503;28;20060;-49
2021/12/28 06:40:33;;;;;;;88.80;35.47;;;;;;;-5.20;78.24;100460.50;5023051;28;20018;-50
2021/12/28 06:42:58;;;;;;;95.82;34.42;;;;;;;-5.18;78.23;100462.94;5017933;28;20041;-50
2021/12/28 06:45:24;;;;;;;88.22;35.58;;;;;;;-5.22;78.16;100483.31;5018929;28;20033;-49
2021/12/28 06:47:49;;;;;;;94.28;35.13;;;;;;;-5.24;78.75;100482.66;5015038;28;20037;-49
2021/12/28 06:50:15;;;;;;;90.65;34.75;;;;;;;-5.20;78.18;100476.16;5018671;28;20299;-49
2021/12/28 06:52:41;;;;;;;94.25;36.88;;;;;;;-5.21;77.74;100478.91;5021569;28;20072;-48
2021/12/28 06:55:08;;;;;;;97.43;34.80;;;;;;;-5.21;78.06;100494.56;5017046;28;20025;-48
2021/12/28 06:57:34;;;;;;;89.28;34.95;;;;;;;-5.28;78.84;100496.97;5018838;28;20053;-50
2021/12/28 06:59:59;;;;;;;93.57;36.50;;;;;;;-5.32;79.01;100493.03;5016065;28;20107;-48
2021/12/28 07:02:25;;;;;;;89.38;34.47;;;;;;;-5.33;78.61;100501.03;5004810;28;20037;-49
2021/12/28 07:04:52;;;;;;;84.38;34.58;;;;;;;-5.29;79.13;100507.59;5004104;28;20185;-51
2021/12/28 07:07:19;;;;;;;90.70;33.88;;;;;;;-5.24;79.16;100506.16;5019898;28;20478;-49
2021/12/28 07:09:44;;;;;;;92.90;36.20;;;;;;;-5.14;78.42;100518.31;5016071;28;20075;-51
2021/12/28 07:12:10;;;;;;;88.15;33.13;;;;;;;-5.11;78.82;100500.53;5015609;28;20049;-48
2021/12/28 07:14:36;;;;;;;91.10;36.53;;;;;;;-5.10;78.48;100498.75;5018379;28;20030;-52
2021/12/28 07:17:02;;;;;;;89.70;35.28;;;;;;;-5.07;78.54;100480.16;5017134;28;20111;-49
2021/12/28 07:19:28;;;;;;;90.70;32.72;;;;;;;-4.98;78.88;100474.00;5017794;28;20029;-50
2021/12/28 07:21:54;;;;;;;86.25;35.75;;;;;;;-4.98;78.47;100474.00;4999388;28;20477;-50
2021/12/28 07:24:19;;;;;;;88.15;34.35;;;;;;;-4.99;78.88;100472.38;5015809;28;20090;-48
2021/12/28 07:26:45;;;;;;;104.30;35.20;;;;;;;-4.95;78.34;100471.09;5014317;28;20029;-48
2021/12/28 07:29:12;;;;;;;90.78;34.50;;;;;;;-4.95;78.33;100468.47;5014355;28;20688;-49
2021/12/28 07:31:38;;;;;;;93.35;35.35;;;;;;;-4.91;78.71;100469.81;5018010;28;20036;-51
2021/12/28 07:34:04;;;;;;;83.50;34.90;;;;;;;-4.86;78.32;100470.97;5015454;28;20547;-48
2021/12/28 07:36:30;;;;;;;96.22;35.22;;;;;;;-4.83;78.25;100480.31;5019761;28;20533;-52
2021/12/28 07:38:56;;;;;;;90.07;34.92;;;;;;;-4.81;77.94;100477.53;5011953;28;20120;-50
2021/12/28 07:41:22;;;;;;;93.43;35.53;;;;;;;-4.76;78.47;100480.50;5013658;28;20029;-50
2021/12/28 07:43:47;;;;;;;98.50;34.80;;;;;;;-4.74;78.23;100476.75;5002857;28;20477;-51
2021/12/28 07:46:14;;;;;;;96.03;35.97;;;;;;;-4.71;78.38;100476.44;5018604;28;20571;-48
2021/12/28 07:48:40;;;;;;;97.10;35.38;;;;;;;-4.68;78.37;100470.91;5012077;28;20030;-51
2021/12/28 07:51:07;;;;;;;91.32;34.15;;;;;;;-4.64;78.49;100460.97;5020770;28;20454;-49
2021/12/28 07:53:34;;;;;;;89.30;35.85;;;;;;;-4.63;78.06;100463.44;5015158;28;20025;-48
2021/12/28 07:56:00;;;;;;;97.05;35.10;;;;;;;-4.59;78.30;100469.97;5017032;28;20029;-49
2021/12/28 07:58:26;;;;;;;98.15;35.40;;;;;;;-4.58;78.29;100463.75;5014367;28;20057;-51
2021/12/28 08:00:52;;;;;;;100.85;37.03;;;;;;;-4.58;77.91;100462.94;5013161;28;20085;-51
2021/12/28 08:03:19;;;;;;;92.38;36.40;;;;;;;-4.57;77.96;100473.25;5016297;28;20086;-48
2021/12/28 08:05:45;;;;;;;92.32;35.50;;;;;;;-4.57;77.70;100475.84;5018140;28;20028;-50
2021/12/28 08:08:10;;;;;;;95.20;35.90;;;;;;;-4.56;78.13;100474.88;5010980;28;20482;-48
2021/12/28 08:10:36;;;;;;;93.93;35.28;;;;;;;-4.56;78.31;100476.69;5017714;28;20065;-49
2021/12/28 08:13:01;;;;;;;94.60;35.65;;;;;;;-4.51;78.47;100473.59;5018172;28;20025;-49
2021/12/28 08:15:28;;;;;;;85.28;34.00;;;;;;;-4.50;77.99;100467.38;5016926;28;20049;-48
2021/12/28 08:17:53;;;;;;;98.00;36.35;;;;;;;-4.51;77.80;100460.50;5021035;28;20029;-48
2021/12/28 08:20:20;;;;;;;90.68;35.83;;;;;;;-4.57;78.35;100457.56;5017144;28;20033;-49
2021/12/28 08:22:47;;;;;;;93.00;35.03;;;;;;;-4.49;78.57;100451.53;5016052;28;20025;-48
2021/12/28 08:25:16;;;;;;;97.80;36.22;;;;;;;-4.47;78.58;100448.78;5015960;28;20037;-48
2021/12/28 08:27:43;;;;;;;100.20;36.40;;;;;;;-4.45;78.37;100444.22;5014867;28;20040;-48
2021/12/28 08:30:10;;;;;;;100.40;35.55;;;;;;;-4.37;78.30;100441.59;5018258;28;20029;-49
2021/12/28 08:32:35;;;;;;;96.53;36.25;;;;;;;-4.37;78.08;100437.19;5024189;28;20017;-50
2021/12/28 08:35:02;;;;;;;96.65;36.80;;;;;;;-4.36;78.52;100444.06;5020835;28;20481;-48
2021/12/28 08:37:27;;;;;;;93.45;36.10;;;;;;;-4.34;78.49;100436.88;5018243;28;20444;-48
2021/12/28 08:39:54;;;;;;;97.38;36.05;;;;;;;-4.30;78.47;100432.16;5018136;28;20154;-50
2021/12/28 08:42:21;;;;;;;90.85;38.28;;;;;;;-4.27;78.37;100426.63;5018495;28;20087;-49
2021/12/28 08:44:47;;;;;;;98.70;37.00;;;;;;;-4.22;78.56;100429.56;5017241;28;20025;-49
2021/12/28 08:47:13;;;;;;;96.55;35.72;;;;;;;-4.20;77.89;100419.75;5016212;28;20044;-48
2021/12/28 08:49:39;;;;;;;90.90;35.88;;;;;;;-4.15;77.90;100419.25;5016863;28;20019;-52
2021/12/28 08:52:04;;;;;;;97.10;37.58;;;;;;;-4.12;77.96;100413.72;5016587;28;20033;-50
2021/12/28 08:54:30;;;;;;;99.68;36.55;;;;;;;-4.10;78.34;100407.34;5003849;28;20029;-51
2021/12/28 08:56:56;;;;;;;86.78;35.28;;;;;;;-4.06;77.94;100400.00;5015274;28;20132;-48
2021/12/28 08:59:21;;;;;;;107.05;36.90;;;;;;;-4.02;77.75;100393.44;5020864;28;20040;-48
2021/12/28 09:01:48;;;;;;;93.10;37.03;;;;;;;-4.04;77.82;100384.94;5015947;28;20036;-48
2021/12/28 09:04:15;;;;;;;94.40;37.58;;;;;;;-4.00;78.21;100386.25;5016019;28;20037;-49
2021/12/28 09:06:40;;;;;;;104.70;38.75;;;;;;;-3.96;78.19;100390.19;5018604;28;20433;-49
2021/12/28 09:09:06;;;;;;;108.45;38.67;;;;;;;-3.91;78.42;100385.28;5016862;28;20091;-48
2021/12/28 09:11:31;;;;;;;89.47;35.40;;;;;;;-3.88;78.41;100384.16;5018115;28;20370;-51
2021/12/28 09:13:57;;;;;;;91.30;35.20;;;;;;;-3.80;78.30;100392.00;5015964;28;20774;-50
2021/12/28 09:16:23;;;;;;;102.70;38.67;;;;;;;-3.77;78.08;100382.03;5024576;28;20219;-49
2021/12/28 09:18:48;;;;;;;87.57;33.08;;;;;;;-3.73;78.33;100379.91;5021260;28;20029;-48
2021/12/28 09:21:14;;;;;;;86.25;34.55;;;;;;;-3.66;77.97;100383.47;5004586;28;20041;-49
2021/12/28 09:23:40;;;;;;;96.05;35.10;;;;;;;-3.61;77.73;100388.22;5014755;28;20036;-52
2021/12/28 09:26:05;;;;;;;88.93;36.58;;;;;;;-3.59;77.75;100394.94;5015535;28;20030;-49
2021/12/28 09:28:31;;;;;;;84.25;34.40;;;;;;;-3.56;78.10;100384.13;5013892;28;20030;-49
2021/12/28 09:30:57;;;;;;;95.57;34.17;;;;;;;-3.54;77.66;100376.94;5013241;28;20464;-50
2021/12/28 09:33:24;;;;;;;89.25;34.85;;;;;;;-3.51;78.06;100373.97;5016667;28;20140;-49
2021/12/28 09:35:51;;;;;;;86.72;34.60;;;;;;;-3.45;77.89;100370.69;5017044;28;20680;-49
2021/12/28 09:38:19;;;;;;;105.18;38.38;;;;;;;-3.42;78.14;100359.88;5018282;28;20363;-48
2021/12/28 09:40:46;;;;;;;94.03;36.75;;;;;;;-3.37;77.72;100354.97;5017101;28;20022;-51
2021/12/28 09:43:13;;;;;;;89.57;36.95;;;;;;;-3.30;77.72;100343.81;5019208;28;20421;-51
2021/12/28 09:45:38;;;;;;;92.95;36.25;;;;;;;-3.26;77.93;100339.88;5017224;28;20474;-51
2021/12/28 09:48:05;;;;;;;82.97;34.05;;;;;;;-3.18;77.71;100343.28;5013397;28;20030;-50
2021/12/28 09:50:31;;;;;;;97.15;36.35;;;;;;;-3.16;77.74;100332.63;5017852;28;20454;-51
2021/12/28 09:52:57;;;;;;;96.43;36.67;;;;;;;-3.11;77.20;100333.75;5012730;28;20042;-51
2021/12/28 09:55:24;;;;;;;94.18;36.85;;;;;;;-3.13;77.58;100330.50;5015992;28;20441;-48
2021/12/28 09:57:51;;;;;;;97.53;34.83;;;;;;;-3.13;77.19;100327.88;5013406;28;20075;-50
2021/12/28 10:00:18;;;;;;;91.22;35.05;;;;;;;-3.12;77.27;100318.22;5013773;28;20076;-48
2021/12/28 10:02:43;;;;;;;92.05;35.67;;;;;;;-3.11;77.87;100323.28;5014016;28;20022;-49
2021/12/28 10:05:13;;;;;;;95.63;36.38;;;;;;;-3.05;77.76;100327.84;5012334;28;20047;-49
2021/12/28 10:07:50;;;;;;;91.72;35.40;;;;;;;-3.02;77.23;100339.81;5014128;28;20117;-48
2021/12/28 10:10:16;;;;;;;84.50;33.85;;;;;;;-2.99;77.65;100325.53;5018648;28;20030;-48
2021/12/28 10:12:44;;;;;;;87.13;33.42;;;;;;;-2.97;77.49;100327.00;5014212;28;20033;-48
2021/12/28 10:15:16;;;;;;;85.75;32.78;;;;;;;-2.96;77.24;100333.06;5017968;28;20095;-48
2021/12/28 10:17:44;;;;;;;97.97;32.95;;;;;;;-2.96;77.26;100331.25;5013806;28;20406;-48
2021/12/28 10:20:11;;;;;;;96.50;34.13;;;;;;;-2.93;77.56;100332.72;5016596;28;20026;-48
2021/12/28 10:22:47;;;;;;;84.63;31.15;;;;;;;-2.92;77.14;100332.53;5014339;28;20048;-48
2021/12/28 10:25:21;;;;;;;89.65;32.70;;;;;;;-2.91;77.54;100328.91;5019714;28;20034;-48
2021/12/28 10:27:58;;;;;;;84.43;31.85;;;;;;;-2.94;77.81;100326.66;5017163;28;20034;-48
2021/12/28 10:30:26;;;;;;;85.45;32.22;;;;;;;-2.89;77.82;100326.94;5015592;28;20029;-48
2021/12/28 10:32:54;;;;;;;89.30;34.35;;;;;;;-2.87;77.05;100325.00;5016321;28;20025;-48
2021/12/28 10:35:25;;;;;;;89.68;34.97;;;;;;;-2.87;77.92;100327.63;5020406;28;20033;-48
2021/12/28 10:37:53;;;;;;;90.38;32.88;;;;;;;-2.79;77.70;100319.69;5015250;28;20029;-48
2021/12/28 10:40:35;;;;;;;100.97;35.00;;;;;;;-2.72;76.97;100311.94;5018478;28;20032;-48
2021/12/28 10:43:07;;;;;;;91.10;33.30;;;;;;;-2.74;77.33;100304.25;5016754;28;20056;-48
2021/12/28 10:45:41;;;;;;;84.45;32.55;;;;;;;-2.72;77.42;100306.69;5017350;28;20108;-48
2021/12/28 10:48:15;;;;;;;94.45;33.85;;;;;;;-2.69;76.96;100305.53;5016283;28;20080;-48
2021/12/28 10:51:02;;;;;;;83.10;33.22;;;;;;;-2.69;76.90;100305.53;5011267;28;20025;-48
2021/12/28 10:53:37;;;;;;;80.20;30.77;;;;;;;-2.68;77.94;100307.19;5011612;28;20018;-48
2021/12/28 10:56:04;;;;;;;;;;;;;;;-2.65;77.39;100293.75;5017661;28;20515;-48
2021/12/28 10:58:39;;;;;;;87.95;33.35;;;;;;;-2.62;77.32;100281.09;5018745;28;20385;-49
2021/12/28 11:01:20;;;;;;;90.32;32.72;;;;;;;-2.61;77.36;100289.78;5017412;28;20449;-48
2021/12/28 11:03:49;;;;;;;94.75;34.60;;;;;;;-2.59;77.26;100278.13;5015062;28;20053;-48
2021/12/28 11:06:36;;;;;;;92.47;34.22;;;;;;;-2.59;77.14;100279.91;5019259;28;20112;-48
2021/12/28 11:09:06;;;;;;;83.25;32.00;;;;;;;-2.59;77.77;100280.75;5013770;28;20559;-47
2021/12/28 11:11:33;;;;;;;95.50;34.55;;;;;;;-2.58;78.05;100281.56;5015029;28;20036;-48